sensor_id;sensor_type;location;lat;lon;timestamp;pressure;altitude;pressure_sealevel;temperature;humidity
23643;BME280;11998;55.788;37.572;2023-02-11T00:00:52;98939.31;;;-0.38;100.00
23643;BME280;11998;55.788;37.572;2023-02-11T00:01:52;98924.59;;;-0.38;100.00
23643;BME280;11998;55.788;37.572;2023-02-11T00:02:53;98932.41;;;-0.38;100.00
23643;BME280;11998;55.788;37.572;2023-02-11T00:03:54;98942.78;;;-0.39;100.00
23643;BME280;11998;55.788;37.572;2023-02-11T00:04:55;98926.31;;;-0.40;100.00
23643;BME280;11998;55.788;37.572;2023-02-11T00:06:00;98929.75;;;-0.41;100.00
23643;BME280;11998;55.788;37.572;2023-02-11T00:07:01;98933.97;;;-0.50;100.00
23643;BME280;11998;55.788;37.572;2023-02-11T00:08:02;98936.53;;;-0.52;100.00
23643;BME280;11998;55.788;37.572;2023-02-11T00:09:05;98942.63;;;-0.50;100.00
23643;BME280;11998;55.788;37.572;2023-02-11T00:10:06;98937.50;;;-0.47;100.00
23643;BME280;11998;55.788;37.572;2023-02-11T00:11:11;98944.38;;;-0.50;100.00
23643;BME280;11998;55.788;37.572;2023-02-11T00:12:15;98936.63;;;-0.49;100.00
23643;BME280;11998;55.788;37.572;2023-02-11T00:13:18;98941.81;;;-0.49;100.00
23643;BME280;11998;55.788;37.572;2023-02-11T00:14:19;98935.81;;;-0.43;100.00
23643;BME280;11998;55.788;37.572;2023-02-11T00:15:19;98928.00;;;-0.42;100.00
23643;BME280;11998;55.788;37.572;2023-02-11T00:16:20;98933.19;;;-0.45;100.00
23643;BME280;11998;55.788;37.572;2023-02-11T00:17:21;98945.38;;;-0.41;100.00
23643;BME280;11998;55.788;37.572;2023-02-11T00:18:21;98930.59;;;-0.43;100.00
23643;BME280;11998;55.788;37.572;2023-02-11T00:19:22;98927.88;;;-0.51;100.00
23643;BME280;11998;55.788;37.572;2023-02-11T00:20:23;98940.09;;;-0.47;100.00
23643;BME280;11998;55.788;37.572;2023-02-11T00:21:25;98942.72;;;-0.45;100.00
23643;BME280;11998;55.788;37.572;2023-02-11T00:22:25;98947.06;;;-0.46;100.00
23643;BME280;11998;55.788;37.572;2023-02-11T00:23:26;98942.69;;;-0.48;100.00
23643;BME280;11998;55.788;37.572;2023-02-11T00:24:26;98929.63;;;-0.50;100.00
23643;BME280;11998;55.788;37.572;2023-02-11T00:25:29;98939.97;;;-0.56;100.00
23643;BME280;11998;55.788;37.572;2023-02-11T00:26:32;98956.38;;;-0.62;100.00
23643;BME280;11998;55.788;37.572;2023-02-11T00:27:33;98936.44;;;-0.61;100.00
23643;BME280;11998;55.788;37.572;2023-02-11T00:28:35;98939.81;;;-0.68;100.00
23643;BME280;11998;55.788;37.572;2023-02-11T00:29:37;98939.66;;;-0.77;100.00
23643;BME280;11998;55.788;37.572;2023-02-11T00:30:37;98939.69;;;-0.76;100.00
23643;BME280;11998;55.788;37.572;2023-02-11T00:31:38;98944.94;;;-0.74;100.00
23643;BME280;11998;55.788;37.572;2023-02-11T00:32:38;98943.16;;;-0.75;100.00
23643;BME280;11998;55.788;37.572;2023-02-11T00:33:39;98936.13;;;-0.82;100.00
23643;BME280;11998;55.788;37.572;2023-02-11T00:34:39;98936.22;;;-0.76;100.00
23643;BME280;11998;55.788;37.572;2023-02-11T00:35:40;98944.81;;;-0.80;100.00
23643;BME280;11998;55.788;37.572;2023-02-11T00:36:40;98943.13;;;-0.77;100.00
23643;BME280;11998;55.788;37.572;2023-02-11T00:37:41;98941.41;;;-0.76;100.00
23643;BME280;11998;55.788;37.572;2023-02-11T00:38:43;98935.25;;;-0.84;100.00
23643;BME280;11998;55.788;37.572;2023-02-11T00:39:43;98947.28;;;-0.90;100.00
23643;BME280;11998;55.788;37.572;2023-02-11T00:40:44;98941.19;;;-0.92;100.00
23643;BME280;11998;55.788;37.572;2023-02-11T00:41:44;98940.31;;;-0.92;100.00
23643;BME280;11998;55.788;37.572;2023-02-11T00:42:45;98931.63;;;-0.94;100.00
23643;BME280;11998;55.788;37.572;2023-02-11T00:43:46;98945.47;;;-0.95;100.00
23643;BME280;11998;55.788;37.572;2023-02-11T00:44:46;98953.25;;;-0.97;100.00
23643;BME280;11998;55.788;37.572;2023-02-11T00:45:47;98936.69;;;-1.03;100.00
23643;BME280;11998;55.788;37.572;2023-02-11T00:46:47;98940.13;;;-1.04;100.00
23643;BME280;11998;55.788;37.572;2023-02-11T00:47:48;98930.53;;;-1.10;100.00
23643;BME280;11998;55.788;37.572;2023-02-11T00:48:49;98949.56;;;-1.11;100.00
23643;BME280;11998;55.788;37.572;2023-02-11T00:49:50;98948.69;;;-1.11;100.00
23643;BME280;11998;55.788;37.572;2023-02-11T00:50:51;98949.56;;;-1.11;100.00
23643;BME280;11998;55.788;37.572;2023-02-11T00:51:52;98949.56;;;-1.11;100.00
23643;BME280;11998;55.788;37.572;2023-02-11T00:52:52;98954.78;;;-1.11;100.00
23643;BME280;11998;55.788;37.572;2023-02-11T00:53:53;98961.63;;;-1.13;100.00
23643;BME280;11998;55.788;37.572;2023-02-11T00:54:53;98958.09;;;-1.18;100.00
23643;BME280;11998;55.788;37.572;2023-02-11T00:55:54;98961.50;;;-1.22;100.00
23643;BME280;11998;55.788;37.572;2023-02-11T00:56:55;98958.00;;;-1.24;100.00
23643;BME280;11998;55.788;37.572;2023-02-11T00:57:55;98957.94;;;-1.27;100.00
23643;BME280;11998;55.788;37.572;2023-02-11T00:58:58;98961.50;;;-1.24;100.00
23643;BME280;11998;55.788;37.572;2023-02-11T00:59:58;98953.72;;;-1.22;100.00
23643;BME280;11998;55.788;37.572;2023-02-11T01:00:58;98967.63;;;-1.19;100.00
23643;BME280;11998;55.788;37.572;2023-02-11T01:01:59;98965.00;;;-1.20;100.00
23643;BME280;11998;55.788;37.572;2023-02-11T01:03:00;98958.16;;;-1.15;100.00
23643;BME280;11998;55.788;37.572;2023-02-11T01:04:01;98959.81;;;-1.20;100.00
23643;BME280;11998;55.788;37.572;2023-02-11T01:05:04;98965.84;;;-1.21;100.00
23643;BME280;11998;55.788;37.572;2023-02-11T01:06:06;98954.56;;;-1.23;100.00
23643;BME280;11998;55.788;37.572;2023-02-11T01:07:08;98958.00;;;-1.24;100.00
23643;BME280;11998;55.788;37.572;2023-02-11T01:08:08;98964.88;;;-1.26;100.00
23643;BME280;11998;55.788;37.572;2023-02-11T01:09:09;98968.34;;;-1.27;100.00
23643;BME280;11998;55.788;37.572;2023-02-11T01:10:10;98963.97;;;-1.30;100.00
23643;BME280;11998;55.788;37.572;2023-02-11T01:11:14;98957.06;;;-1.29;100.00
23643;BME280;11998;55.788;37.572;2023-02-11T01:12:16;98967.47;;;-1.28;100.00
23643;BME280;11998;55.788;37.572;2023-02-11T01:13:16;98962.22;;;-1.31;100.00
23643;BME280;11998;55.788;37.572;2023-02-11T01:14:17;98971.69;;;-1.34;100.00
23643;BME280;11998;55.788;37.572;2023-02-11T01:15:19;98967.34;;;-1.35;100.00
23643;BME280;11998;55.788;37.572;2023-02-11T01:16:20;98975.16;;;-1.35;100.00
23643;BME280;11998;55.788;37.572;2023-02-11T01:17:21;98971.75;;;-1.31;100.00
23643;BME280;11998;55.788;37.572;2023-02-11T01:18:21;98971.69;;;-1.34;100.00
23643;BME280;11998;55.788;37.572;2023-02-11T01:19:22;98979.47;;;-1.36;100.00
23643;BME280;11998;55.788;37.572;2023-02-11T01:20:25;98976.03;;;-1.33;100.00
23643;BME280;11998;55.788;37.572;2023-02-11T01:21:25;98966.44;;;-1.37;100.00
23643;BME280;11998;55.788;37.572;2023-02-11T01:22:26;98973.41;;;-1.36;100.00
23643;BME280;11998;55.788;37.572;2023-02-11T01:23:26;98972.47;;;-1.38;100.00
23643;BME280;11998;55.788;37.572;2023-02-11T01:24:27;98974.16;;;-1.40;100.00
23643;BME280;11998;55.788;37.572;2023-02-11T01:25:27;98977.66;;;-1.40;100.00
23643;BME280;11998;55.788;37.572;2023-02-11T01:26:28;98980.25;;;-1.38;100.00
23643;BME280;11998;55.788;37.572;2023-02-11T01:27:28;98980.22;;;-1.41;100.00
23643;BME280;11998;55.788;37.572;2023-02-11T01:28:29;98990.59;;;-1.41;100.00
23643;BME280;11998;55.788;37.572;2023-02-11T01:29:30;98988.88;;;-1.41;100.00
23643;BME280;11998;55.788;37.572;2023-02-11T01:30:30;98985.38;;;-1.44;100.00
23643;BME280;11998;55.788;37.572;2023-02-11T01:31:31;98992.19;;;-1.50;100.00
23643;BME280;11998;55.788;37.572;2023-02-11T01:32:32;98981.88;;;-1.46;100.00
23643;BME280;11998;55.788;37.572;2023-02-11T01:33:33;98991.44;;;-1.44;100.00
23643;BME280;11998;55.788;37.572;2023-02-11T01:34:34;98990.50;;;-1.48;100.00
23643;BME280;11998;55.788;37.572;2023-02-11T01:35:34;98972.22;;;-1.54;100.00
23643;BME280;11998;55.788;37.572;2023-02-11T01:36:35;98990.38;;;-1.54;100.00
23643;BME280;11998;55.788;37.572;2023-02-11T01:37:35;98984.34;;;-1.53;100.00
23643;BME280;11998;55.788;37.572;2023-02-11T01:38:36;98995.63;;;-1.51;100.00
23643;BME280;11998;55.788;37.572;2023-02-11T01:39:37;98985.19;;;-1.54;100.00
23643;BME280;11998;55.788;37.572;2023-02-11T01:40:37;98990.44;;;-1.51;100.00
23643;BME280;11998;55.788;37.572;2023-02-11T01:41:38;98983.44;;;-1.55;100.00
23643;BME280;11998;55.788;37.572;2023-02-11T01:42:39;98988.63;;;-1.55;100.00
23643;BME280;11998;55.788;37.572;2023-02-11T01:43:43;98992.97;;;-1.54;100.00
23643;BME280;11998;55.788;37.572;2023-02-11T01:44:44;98990.38;;;-1.54;100.00
23643;BME280;11998;55.788;37.572;2023-02-11T01:46:46;98984.31;;;-1.54;100.00
23643;BME280;11998;55.788;37.572;2023-02-11T01:47:46;98982.56;;;-1.57;100.00
23643;BME280;11998;55.788;37.572;2023-02-11T01:48:51;98997.28;;;-1.56;100.00
23643;BME280;11998;55.788;37.572;2023-02-11T01:49:56;98988.53;;;-1.61;100.00
23643;BME280;11998;55.788;37.572;2023-02-11T01:51:20;98991.13;;;-1.61;100.00
23643;BME280;11998;55.788;37.572;2023-02-11T01:52:31;98985.94;;;-1.61;100.00
23643;BME280;11998;55.788;37.572;2023-02-11T01:53:34;98988.53;;;-1.61;100.00
23643;BME280;11998;55.788;37.572;2023-02-11T01:54:58;98987.63;;;-1.61;100.00
23643;BME280;11998;55.788;37.572;2023-02-11T01:56:19;98980.66;;;-1.65;100.00
23643;BME280;11998;55.788;37.572;2023-02-11T01:57:42;98989.25;;;-1.68;100.00
23643;BME280;11998;55.788;37.572;2023-02-11T01:58:46;98983.22;;;-1.67;100.00
23643;BME280;11998;55.788;37.572;2023-02-11T02:00:16;98981.53;;;-1.65;100.00
23643;BME280;11998;55.788;37.572;2023-02-11T02:01:23;98983.28;;;-1.64;100.00
23643;BME280;11998;55.788;37.572;2023-02-11T02:02:31;98982.56;;;-1.57;100.00
23643;BME280;11998;55.788;37.572;2023-02-11T02:03:36;98986.94;;;-1.53;100.00
23643;BME280;11998;55.788;37.572;2023-02-11T02:04:52;98991.38;;;-1.47;100.00
23643;BME280;11998;55.788;37.572;2023-02-11T02:06:05;98993.03;;;-1.51;100.00
23643;BME280;11998;55.788;37.572;2023-02-11T02:07:12;98992.31;;;-1.43;100.00
23643;BME280;11998;55.788;37.572;2023-02-11T02:08:38;98987.19;;;-1.37;100.00
23643;BME280;11998;55.788;37.572;2023-02-11T02:09:43;98984.72;;;-1.31;100.00
23643;BME280;11998;55.788;37.572;2023-02-11T02:10:48;98989.16;;;-1.24;100.00
23643;BME280;11998;55.788;37.572;2023-02-11T02:11:52;98992.72;;;-1.19;100.00
23643;BME280;11998;55.788;37.572;2023-02-11T02:12:53;98985.00;;;-1.14;100.00
23643;BME280;11998;55.788;37.572;2023-02-11T02:13:54;98992.81;;;-1.13;100.00
23643;BME280;11998;55.788;37.572;2023-02-11T02:15:31;98985.94;;;-1.11;100.00
23643;BME280;11998;55.788;37.572;2023-02-11T02:16:35;98978.94;;;-1.15;100.00
23643;BME280;11998;55.788;37.572;2023-02-11T02:17:41;98977.22;;;-1.13;100.00
23643;BME280;11998;55.788;37.572;2023-02-11T02:18:52;98989.53;;;-1.03;100.00
23643;BME280;11998;55.788;37.572;2023-02-11T02:23:30;98995.69;;;-0.98;100.00
23643;BME280;11998;55.788;37.572;2023-02-11T02:27:26;98982.88;;;-0.85;100.00
23643;BME280;11998;55.788;37.572;2023-02-11T02:33:45;98977.03;;;-0.72;100.00
23643;BME280;11998;55.788;37.572;2023-02-11T02:36:40;98982.25;;;-0.69;100.00
23643;BME280;11998;55.788;37.572;2023-02-11T02:38:00;98980.59;;;-0.64;100.00
23643;BME280;11998;55.788;37.572;2023-02-11T02:39:36;98982.28;;;-0.66;100.00
23643;BME280;11998;55.788;37.572;2023-02-11T02:40:45;98985.78;;;-0.66;100.00
23643;BME280;11998;55.788;37.572;2023-02-11T02:41:47;98992.69;;;-0.68;100.00
23643;BME280;11998;55.788;37.572;2023-02-11T02:42:50;98983.16;;;-0.67;100.00
23643;BME280;11998;55.788;37.572;2023-02-11T02:43:51;98991.84;;;-0.65;100.00
23643;BME280;11998;55.788;37.572;2023-02-11T02:44:52;98983.16;;;-0.67;100.00
23643;BME280;11998;55.788;37.572;2023-02-11T02:45:55;98974.53;;;-0.63;100.00
23643;BME280;11998;55.788;37.572;2023-02-11T02:46:55;98994.47;;;-0.62;100.00
23643;BME280;11998;55.788;37.572;2023-02-11T02:47:57;98985.00;;;-0.60;100.00
23643;BME280;11998;55.788;37.572;2023-02-11T02:48:58;98986.75;;;-0.59;100.00
23643;BME280;11998;55.788;37.572;2023-02-11T02:49:59;98982.41;;;-0.60;100.00
23643;BME280;11998;55.788;37.572;2023-02-11T02:52:20;98978.00;;;-0.64;100.00
23643;BME280;11998;55.788;37.572;2023-02-11T02:59:47;98983.00;;;-0.78;100.00
23643;BME280;11998;55.788;37.572;2023-02-11T03:06:00;98972.69;;;-0.72;100.00
23643;BME280;11998;55.788;37.572;2023-02-11T03:08:35;98976.03;;;-0.80;100.00
23643;BME280;11998;55.788;37.572;2023-02-11T03:10:50;98978.66;;;-0.77;100.00
23643;BME280;11998;55.788;37.572;2023-02-11T03:11:52;98972.59;;;-0.76;100.00
23643;BME280;11998;55.788;37.572;2023-02-11T03:12:54;98974.34;;;-0.75;100.00
23643;BME280;11998;55.788;37.572;2023-02-11T03:13:55;98971.69;;;-0.80;100.00
23643;BME280;11998;55.788;37.572;2023-02-11T03:14:57;98976.88;;;-0.81;100.00
23643;BME280;11998;55.788;37.572;2023-02-11T03:16:24;98979.44;;;-0.84;100.00
23643;BME280;11998;55.788;37.572;2023-02-11T03:17:23;98980.25;;;-0.87;100.00
23643;BME280;11998;55.788;37.572;2023-02-11T03:18:27;98979.34;;;-0.89;100.00
23643;BME280;11998;55.788;37.572;2023-02-11T03:19:33;98977.59;;;-0.92;100.00
23643;BME280;11998;55.788;37.572;2023-02-11T03:20:38;98978.50;;;-0.88;100.00
23643;BME280;11998;55.788;37.572;2023-02-11T03:21:42;98983.66;;;-0.91;100.00
23643;BME280;11998;55.788;37.572;2023-02-11T03:22:56;98984.53;;;-0.91;100.00
23643;BME280;11998;55.788;37.572;2023-02-11T03:24:03;98983.59;;;-0.96;100.00
23643;BME280;11998;55.788;37.572;2023-02-11T03:25:05;98977.53;;;-0.95;100.00
23643;BME280;11998;55.788;37.572;2023-02-11T03:27:29;98982.59;;;-1.04;100.00
23643;BME280;11998;55.788;37.572;2023-02-11T03:28:50;98980.81;;;-1.06;100.00
23643;BME280;11998;55.788;37.572;2023-02-11T03:32:51;98973.03;;;-1.06;100.00
23643;BME280;11998;55.788;37.572;2023-02-11T03:34:12;98974.59;;;-1.14;100.00
23643;BME280;11998;55.788;37.572;2023-02-11T03:35:23;98972.03;;;-1.13;100.00
23643;BME280;11998;55.788;37.572;2023-02-11T03:37:42;98979.91;;;-1.10;100.00
23643;BME280;11998;55.788;37.572;2023-02-11T03:38:48;98977.19;;;-1.16;100.00
23643;BME280;11998;55.788;37.572;2023-02-11T03:39:56;98969.31;;;-1.21;100.00
23643;BME280;11998;55.788;37.572;2023-02-11T03:41:01;98975.22;;;-1.29;100.00
23643;BME280;11998;55.788;37.572;2023-02-11T03:42:07;98974.44;;;-1.25;100.00
23643;BME280;11998;55.788;37.572;2023-02-11T03:43:13;98972.69;;;-1.25;100.00
23643;BME280;11998;55.788;37.572;2023-02-11T03:44:17;98964.88;;;-1.26;100.00
23643;BME280;11998;55.788;37.572;2023-02-11T03:45:21;98970.09;;;-1.26;100.00
23643;BME280;11998;55.788;37.572;2023-02-11T03:46:28;98971.91;;;-1.22;100.00
23643;BME280;11998;55.788;37.572;2023-02-11T03:47:31;98966.56;;;-1.31;100.00
23643;BME280;11998;55.788;37.572;2023-02-11T03:48:43;98967.47;;;-1.26;100.00
23643;BME280;11998;55.788;37.572;2023-02-11T03:49:46;98969.22;;;-1.25;100.00
23643;BME280;11998;55.788;37.572;2023-02-11T03:50:50;98974.34;;;-1.31;100.00
23643;BME280;11998;55.788;37.572;2023-02-11T03:51:52;98970.91;;;-1.29;100.00
23643;BME280;11998;55.788;37.572;2023-02-11T03:52:54;98968.38;;;-1.24;100.00
23643;BME280;11998;55.788;37.572;2023-02-11T03:53:59;98971.84;;;-1.25;100.00
23643;BME280;11998;55.788;37.572;2023-02-11T03:55:06;98966.56;;;-1.31;100.00
23643;BME280;11998;55.788;37.572;2023-02-11T03:56:11;98971.75;;;-1.31;100.00
23643;BME280;11998;55.788;37.572;2023-02-11T03:57:14;98964.97;;;-1.23;100.00
23643;BME280;11998;55.788;37.572;2023-02-11T03:58:14;98971.94;;;-1.19;100.00
23643;BME280;11998;55.788;37.572;2023-02-11T03:59:15;98978.84;;;-1.21;100.00
23643;BME280;11998;55.788;37.572;2023-02-11T04:00:16;98968.34;;;-1.27;100.00
23643;BME280;11998;55.788;37.572;2023-02-11T04:01:16;98961.41;;;-1.28;100.00
23643;BME280;11998;55.788;37.572;2023-02-11T04:02:17;98963.16;;;-1.27;100.00
23643;BME280;11998;55.788;37.572;2023-02-11T04:03:18;98962.28;;;-1.28;100.00
23643;BME280;11998;55.788;37.572;2023-02-11T04:04:19;98954.41;;;-1.32;100.00
23643;BME280;11998;55.788;37.572;2023-02-11T04:05:20;98968.25;;;-1.33;100.00
23643;BME280;11998;55.788;37.572;2023-02-11T04:06:20;98969.09;;;-1.36;100.00
23643;BME280;11998;55.788;37.572;2023-02-11T04:07:21;98969.78;;;-1.44;100.00
23643;BME280;11998;55.788;37.572;2023-02-11T04:08:22;98963.78;;;-1.40;100.00
23643;BME280;11998;55.788;37.572;2023-02-11T04:09:22;98972.41;;;-1.43;100.00
23643;BME280;11998;55.788;37.572;2023-02-11T04:10:23;98974.19;;;-1.39;100.00
23643;BME280;11998;55.788;37.572;2023-02-11T04:11:24;98963.63;;;-1.50;100.00
23643;BME280;11998;55.788;37.572;2023-02-11T04:12:25;98966.28;;;-1.46;100.00
23643;BME280;11998;55.788;37.572;2023-02-11T04:13:25;98961.09;;;-1.46;100.00
23643;BME280;11998;55.788;37.572;2023-02-11T04:14:25;98974.94;;;-1.48;100.00
23643;BME280;11998;55.788;37.572;2023-02-11T04:15:26;98969.75;;;-1.48;100.00
23643;BME280;11998;55.788;37.572;2023-02-11T04:16:27;98967.09;;;-1.49;100.00
23643;BME280;11998;55.788;37.572;2023-02-11T04:17:30;98966.97;;;-1.57;100.00
23643;BME280;11998;55.788;37.572;2023-02-11T04:18:30;98966.13;;;-1.56;100.00
23643;BME280;11998;55.788;37.572;2023-02-11T04:19:31;98963.50;;;-1.57;100.00
23643;BME280;11998;55.788;37.572;2023-02-11T04:20:31;98966.06;;;-1.59;100.00
23643;BME280;11998;55.788;37.572;2023-02-11T04:21:32;98975.59;;;-1.59;100.00
23643;BME280;11998;55.788;37.572;2023-02-11T04:22:32;98974.72;;;-1.60;100.00
23643;BME280;11998;55.788;37.572;2023-02-11T04:23:33;98966.78;;;-1.67;100.00
23643;BME280;11998;55.788;37.572;2023-02-11T04:24:34;98971.09;;;-1.68;100.00
23643;BME280;11998;55.788;37.572;2023-02-11T04:25:34;98966.72;;;-1.70;100.00
23643;BME280;11998;55.788;37.572;2023-02-11T04:26:35;98949.25;;;-1.79;100.00
23643;BME280;11998;55.788;37.572;2023-02-11T04:27:36;98946.56;;;-1.85;100.00
23643;BME280;11998;55.788;37.572;2023-02-11T04:28:36;98971.66;;;-1.84;100.00
23643;BME280;11998;55.788;37.572;2023-02-11T04:29:37;98973.31;;;-1.86;100.00
23643;BME280;11998;55.788;37.572;2023-02-11T04:30:37;98960.31;;;-1.88;100.00
23643;BME280;11998;55.788;37.572;2023-02-11T04:31:38;98952.50;;;-1.89;100.00
23643;BME280;11998;55.788;37.572;2023-02-11T04:32:39;98960.25;;;-1.92;100.00
23643;BME280;11998;55.788;37.572;2023-02-11T04:33:42;98949.81;;;-1.95;100.00
23643;BME280;11998;55.788;37.572;2023-02-11T04:34:43;98957.56;;;-1.97;100.00
23643;BME280;11998;55.788;37.572;2023-02-11T04:35:44;98960.06;;;-2.01;100.00
23643;BME280;11998;55.788;37.572;2023-02-11T04:36:44;98944.44;;;-2.04;100.00
23643;BME280;11998;55.788;37.572;2023-02-11T04:37:45;98959.06;;;-2.10;100.00
23643;BME280;11998;55.788;37.572;2023-02-11T04:38:45;98961.56;;;-2.13;100.00
23643;BME280;11998;55.788;37.572;2023-02-11T04:39:46;98954.63;;;-2.14;100.00
23643;BME280;11998;55.788;37.572;2023-02-11T04:40:46;98958.06;;;-2.15;100.00
23643;BME280;11998;55.788;37.572;2023-02-11T04:41:47;98965.00;;;-2.14;100.00
23643;BME280;11998;55.788;37.572;2023-02-11T04:42:48;98959.81;;;-2.14;100.00
23643;BME280;11998;55.788;37.572;2023-02-11T04:43:48;98949.28;;;-2.23;100.00
23643;BME280;11998;55.788;37.572;2023-02-11T04:44:49;98959.78;;;-2.17;100.00
23643;BME280;11998;55.788;37.572;2023-02-11T04:45:55;98963.03;;;-2.25;100.00
23643;BME280;11998;55.788;37.572;2023-02-11T04:46:59;98961.41;;;-2.22;100.00
23643;BME280;11998;55.788;37.572;2023-02-11T04:48:03;98963.16;;;-2.21;100.00
23643;BME280;11998;55.788;37.572;2023-02-11T04:49:03;98967.38;;;-2.24;100.00
23643;BME280;11998;55.788;37.572;2023-02-11T04:50:05;98965.63;;;-2.25;100.00
23643;BME280;11998;55.788;37.572;2023-02-11T04:51:05;98965.59;;;-2.27;100.00
23643;BME280;11998;55.788;37.572;2023-02-11T04:52:06;98959.56;;;-2.26;100.00
23643;BME280;11998;55.788;37.572;2023-02-11T04:53:07;98969.94;;;-2.26;100.00
23643;BME280;11998;55.788;37.572;2023-02-11T04:54:10;98963.03;;;-2.25;100.00
23643;BME280;11998;55.788;37.572;2023-02-11T04:55:11;98969.13;;;-2.23;100.00
23643;BME280;11998;55.788;37.572;2023-02-11T04:56:12;98968.34;;;-2.21;100.00
23643;BME280;11998;55.788;37.572;2023-02-11T04:57:13;98965.72;;;-2.22;100.00
23643;BME280;11998;55.788;37.572;2023-02-11T04:58:13;98969.88;;;-2.29;100.00
23643;BME280;11998;55.788;37.572;2023-02-11T04:59:14;98971.69;;;-2.25;100.00
23643;BME280;11998;55.788;37.572;2023-02-11T05:00:15;98974.25;;;-2.26;100.00
23643;BME280;11998;55.788;37.572;2023-02-11T05:01:16;98971.78;;;-2.22;100.00
23643;BME280;11998;55.788;37.572;2023-02-11T05:02:16;98965.78;;;-2.19;100.00
23643;BME280;11998;55.788;37.572;2023-02-11T05:03:17;98971.88;;;-2.16;100.00
23643;BME280;11998;55.788;37.572;2023-02-11T05:04:18;98973.59;;;-2.18;100.00
23643;BME280;11998;55.788;37.572;2023-02-11T05:05:19;98959.84;;;-2.12;100.00
23643;BME280;11998;55.788;37.572;2023-02-11T05:06:19;98970.22;;;-2.12;100.00
23643;BME280;11998;55.788;37.572;2023-02-11T05:07:20;98962.38;;;-2.17;100.00
23643;BME280;11998;55.788;37.572;2023-02-11T05:08:21;98971.88;;;-2.16;100.00
23643;BME280;11998;55.788;37.572;2023-02-11T05:09:21;98959.81;;;-2.14;100.00
23643;BME280;11998;55.788;37.572;2023-02-11T05:10:22;98960.72;;;-2.12;100.00
23643;BME280;11998;55.788;37.572;2023-02-11T05:11:24;98965.00;;;-2.14;100.00
23643;BME280;11998;55.788;37.572;2023-02-11T05:12:24;98970.09;;;-2.20;100.00
23643;BME280;11998;55.788;37.572;2023-02-11T05:13:25;98966.66;;;-2.19;100.00
23643;BME280;11998;55.788;37.572;2023-02-11T05:14:26;98968.41;;;-2.18;100.00
23643;BME280;11998;55.788;37.572;2023-02-11T05:15:30;98967.47;;;-2.21;100.00
23643;BME280;11998;55.788;37.572;2023-02-11T05:16:30;98977.03;;;-2.19;100.00
23643;BME280;11998;55.788;37.572;2023-02-11T05:17:31;98962.34;;;-2.18;100.00
23643;BME280;11998;55.788;37.572;2023-02-11T05:18:31;98976.22;;;-2.16;100.00
23643;BME280;11998;55.788;37.572;2023-02-11T05:19:32;98973.63;;;-2.15;100.00
23643;BME280;11998;55.788;37.572;2023-02-11T05:20:33;98971.94;;;-2.13;100.00
23643;BME280;11998;55.788;37.572;2023-02-11T05:21:35;98966.91;;;-2.07;100.00
23643;BME280;11998;55.788;37.572;2023-02-11T05:22:36;98972.91;;;-2.09;100.00
23643;BME280;11998;55.788;37.572;2023-02-11T05:23:38;98973.78;;;-2.09;100.00
23643;BME280;11998;55.788;37.572;2023-02-11T05:24:38;98971.22;;;-2.07;100.00
23643;BME280;11998;55.788;37.572;2023-02-11T05:25:39;98975.56;;;-2.06;100.00
23643;BME280;11998;55.788;37.572;2023-02-11T05:26:40;98970.38;;;-2.04;100.00
23643;BME280;11998;55.788;37.572;2023-02-11T05:27:40;98960.84;;;-2.05;100.00
23643;BME280;11998;55.788;37.572;2023-02-11T05:28:41;98970.53;;;-1.98;100.00
23643;BME280;11998;55.788;37.572;2023-02-11T05:29:42;98968.84;;;-1.95;100.00
23643;BME280;11998;55.788;37.572;2023-02-11T05:30:43;98964.59;;;-1.91;100.00
23643;BME280;11998;55.788;37.572;2023-02-11T05:31:46;98962.03;;;-1.88;100.00
23643;BME280;11998;55.788;37.572;2023-02-11T05:32:46;98959.59;;;-1.81;100.00
23643;BME280;11998;55.788;37.572;2023-02-11T05:33:49;98958.72;;;-1.81;100.00
23643;BME280;11998;55.788;37.572;2023-02-11T05:34:50;98963.88;;;-1.84;100.00
23643;BME280;11998;55.788;37.572;2023-02-11T05:35:51;98957.97;;;-1.74;100.00
23643;BME280;11998;55.788;37.572;2023-02-11T05:36:51;98960.72;;;-1.68;100.00
23643;BME280;11998;55.788;37.572;2023-02-11T05:37:52;98946.84;;;-1.68;100.00
23643;BME280;11998;55.788;37.572;2023-02-11T05:38:52;98957.53;;;-1.52;100.00
23643;BME280;11998;55.788;37.572;2023-02-11T05:39:53;98960.97;;;-1.53;100.00
23643;BME280;11998;55.788;37.572;2023-02-11T05:40:54;98958.41;;;-1.50;100.00
23643;BME280;11998;55.788;37.572;2023-02-11T05:41:55;98959.28;;;-1.51;100.00
23643;BME280;11998;55.788;37.572;2023-02-11T05:42:55;98959.28;;;-1.51;100.00
23643;BME280;11998;55.788;37.572;2023-02-11T05:43:56;98966.31;;;-1.45;100.00
23643;BME280;11998;55.788;37.572;2023-02-11T05:44:56;98967.16;;;-1.48;100.00
23643;BME280;11998;55.788;37.572;2023-02-11T05:45:57;98962.88;;;-1.42;100.00
23643;BME280;11998;55.788;37.572;2023-02-11T05:46:58;98967.22;;;-1.43;100.00
23643;BME280;11998;55.788;37.572;2023-02-11T05:47:58;98956.03;;;-1.37;100.00
23643;BME280;11998;55.788;37.572;2023-02-11T05:48:59;98957.88;;;-1.33;100.00
23643;BME280;11998;55.788;37.572;2023-02-11T05:49:59;98961.28;;;-1.36;100.00
23643;BME280;11998;55.788;37.572;2023-02-11T05:51:00;98956.22;;;-1.27;100.00
23643;BME280;11998;55.788;37.572;2023-02-11T05:52:01;98952.78;;;-1.24;100.00
23643;BME280;11998;55.788;37.572;2023-02-11T05:53:01;98952.91;;;-1.18;100.00
23643;BME280;11998;55.788;37.572;2023-02-11T05:54:02;98951.31;;;-1.10;100.00
23643;BME280;11998;55.788;37.572;2023-02-11T05:55:03;98958.25;;;-1.09;100.00
23643;BME280;11998;55.788;37.572;2023-02-11T05:56:04;98952.16;;;-1.11;100.00
23643;BME280;11998;55.788;37.572;2023-02-11T05:57:05;98949.63;;;-1.08;100.00
23643;BME280;11998;55.788;37.572;2023-02-11T05:58:06;98949.69;;;-1.02;100.00
23643;BME280;11998;55.788;37.572;2023-02-11T05:59:07;98960.03;;;-1.05;100.00
23643;BME280;11998;55.788;37.572;2023-02-11T06:00:08;98947.00;;;-1.08;100.00